sensor_id;sensor_type;location;lat;lon;timestamp;P1;durP1;ratioP1;P2;durP2;ratioP2
34695;SDS011;20918;51.138;17.370;2022-09-16T00:01:54;4.08;;;2.52;;
34695;SDS011;20918;51.138;17.370;2022-09-16T00:04:55;5.50;;;2.55;;
34695;SDS011;20918;51.138;17.370;2022-09-16T00:07:56;5.62;;;2.40;;
34695;SDS011;20918;51.138;17.370;2022-09-16T00:11:00;7.03;;;2.55;;
34695;SDS011;20918;51.138;17.370;2022-09-16T00:14:04;6.78;;;2.60;;
34695;SDS011;20918;51.138;17.370;2022-09-16T00:17:05;4.00;;;2.67;;
34695;SDS011;20918;51.138;17.370;2022-09-16T00:20:06;5.28;;;2.62;;
34695;SDS011;20918;51.138;17.370;2022-09-16T00:23:08;4.62;;;2.83;;
34695;SDS011;20918;51.138;17.370;2022-09-16T00:26:09;5.83;;;2.40;;
34695;SDS011;20918;51.138;17.370;2022-09-16T00:29:10;6.60;;;3.22;;
34695;SDS011;20918;51.138;17.370;2022-09-16T00:32:12;6.78;;;2.85;;
34695;SDS011;20918;51.138;17.370;2022-09-16T00:35:13;6.87;;;2.77;;
34695;SDS011;20918;51.138;17.370;2022-09-16T00:38:14;7.55;;;2.87;;
34695;SDS011;20918;51.138;17.370;2022-09-16T00:41:17;5.95;;;2.60;;
34695;SDS011;20918;51.138;17.370;2022-09-16T00:48:02;4.03;;;2.20;;
34695;SDS011;20918;51.138;17.370;2022-09-16T00:51:07;6.53;;;2.50;;
34695;SDS011;20918;51.138;17.370;2022-09-16T00:54:10;7.53;;;2.58;;
34695;SDS011;20918;51.138;17.370;2022-09-16T00:57:12;6.35;;;2.45;;
34695;SDS011;20918;51.138;17.370;2022-09-16T01:00:15;3.80;;;2.30;;
34695;SDS011;20918;51.138;17.370;2022-09-16T01:03:17;8.40;;;2.77;;
34695;SDS011;20918;51.138;17.370;2022-09-16T01:06:19;8.13;;;2.33;;
34695;SDS011;20918;51.138;17.370;2022-09-16T01:09:23;6.10;;;2.22;;
34695;SDS011;20918;51.138;17.370;2022-09-16T01:12:26;5.42;;;2.60;;
34695;SDS011;20918;51.138;17.370;2022-09-16T01:15:31;13.80;;;2.85;;
34695;SDS011;20918;51.138;17.370;2022-09-16T01:18:46;7.40;;;2.20;;
34695;SDS011;20918;51.138;17.370;2022-09-16T01:22:06;6.62;;;2.40;;
34695;SDS011;20918;51.138;17.370;2022-09-16T01:35:23;6.83;;;1.98;;
34695;SDS011;20918;51.138;17.370;2022-09-16T01:45:36;5.30;;;2.20;;
34695;SDS011;20918;51.138;17.370;2022-09-16T01:49:00;2.98;;;1.80;;
34695;SDS011;20918;51.138;17.370;2022-09-16T01:52:44;6.95;;;2.27;;
34695;SDS011;20918;51.138;17.370;2022-09-16T02:11:11;1.95;;;1.70;;
34695;SDS011;20918;51.138;17.370;2022-09-16T02:14:17;4.67;;;1.87;;
34695;SDS011;20918;51.138;17.370;2022-09-16T02:17:24;4.17;;;1.90;;
34695;SDS011;20918;51.138;17.370;2022-09-16T02:20:29;6.12;;;2.45;;
34695;SDS011;20918;51.138;17.370;2022-09-16T02:23:39;5.62;;;1.85;;
34695;SDS011;20918;51.138;17.370;2022-09-16T02:26:53;5.62;;;2.02;;
34695;SDS011;20918;51.138;17.370;2022-09-16T02:30:01;7.00;;;1.92;;
34695;SDS011;20918;51.138;17.370;2022-09-16T02:33:06;7.55;;;1.85;;
34695;SDS011;20918;51.138;17.370;2022-09-16T02:36:10;7.45;;;2.00;;
34695;SDS011;20918;51.138;17.370;2022-09-16T02:39:17;4.47;;;2.00;;
34695;SDS011;20918;51.138;17.370;2022-09-16T02:42:22;3.47;;;1.85;;
34695;SDS011;20918;51.138;17.370;2022-09-16T02:45:24;6.20;;;2.15;;
34695;SDS011;20918;51.138;17.370;2022-09-16T02:58:36;7.08;;;2.12;;
34695;SDS011;20918;51.138;17.370;2022-09-16T03:01:43;4.62;;;1.67;;
34695;SDS011;20918;51.138;17.370;2022-09-16T03:04:44;9.03;;;1.77;;
34695;SDS011;20918;51.138;17.370;2022-09-16T03:07:45;8.00;;;1.90;;
34695;SDS011;20918;51.138;17.370;2022-09-16T03:10:45;2.45;;;1.80;;
34695;SDS011;20918;51.138;17.370;2022-09-16T03:27:47;4.90;;;1.92;;
34695;SDS011;20918;51.138;17.370;2022-09-16T03:34:22;4.28;;;2.00;;
34695;SDS011;20918;51.138;17.370;2022-09-16T03:37:39;4.53;;;1.57;;
34695;SDS011;20918;51.138;17.370;2022-09-16T03:40:42;4.12;;;1.72;;
34695;SDS011;20918;51.138;17.370;2022-09-16T03:43:55;3.08;;;1.55;;
34695;SDS011;20918;51.138;17.370;2022-09-16T03:46:56;2.55;;;1.75;;
34695;SDS011;20918;51.138;17.370;2022-09-16T03:49:57;6.83;;;1.80;;
34695;SDS011;20918;51.138;17.370;2022-09-16T03:52:58;3.90;;;1.67;;
34695;SDS011;20918;51.138;17.370;2022-09-16T03:55:59;3.58;;;1.80;;
34695;SDS011;20918;51.138;17.370;2022-09-16T03:59:00;4.17;;;1.50;;
34695;SDS011;20918;51.138;17.370;2022-09-16T04:02:01;4.95;;;1.65;;
34695;SDS011;20918;51.138;17.370;2022-09-16T04:05:03;3.95;;;1.67;;
34695;SDS011;20918;51.138;17.370;2022-09-16T04:08:04;5.15;;;1.50;;
34695;SDS011;20918;51.138;17.370;2022-09-16T04:11:05;6.40;;;1.62;;
34695;SDS011;20918;51.138;17.370;2022-09-16T04:14:07;3.27;;;1.45;;
34695;SDS011;20918;51.138;17.370;2022-09-16T04:17:08;8.43;;;1.60;;
34695;SDS011;20918;51.138;17.370;2022-09-16T04:20:09;5.55;;;2.08;;
34695;SDS011;20918;51.138;17.370;2022-09-16T04:23:10;8.23;;;2.05;;
34695;SDS011;20918;51.138;17.370;2022-09-16T04:26:11;4.05;;;1.80;;
34695;SDS011;20918;51.138;17.370;2022-09-16T04:29:12;4.42;;;1.70;;
34695;SDS011;20918;51.138;17.370;2022-09-16T04:32:14;6.67;;;1.80;;
34695;SDS011;20918;51.138;17.370;2022-09-16T04:35:15;3.58;;;1.60;;
34695;SDS011;20918;51.138;17.370;2022-09-16T04:38:18;5.22;;;1.60;;
34695;SDS011;20918;51.138;17.370;2022-09-16T04:41:19;6.08;;;1.60;;
34695;SDS011;20918;51.138;17.370;2022-09-16T04:44:23;7.45;;;1.87;;
34695;SDS011;20918;51.138;17.370;2022-09-16T04:47:26;5.10;;;2.42;;
34695;SDS011;20918;51.138;17.370;2022-09-16T04:50:28;3.77;;;2.08;;
34695;SDS011;20918;51.138;17.370;2022-09-16T04:53:29;2.47;;;1.32;;
34695;SDS011;20918;51.138;17.370;2022-09-16T04:56:30;2.47;;;1.27;;
34695;SDS011;20918;51.138;17.370;2022-09-16T04:59:32;2.27;;;1.27;;
34695;SDS011;20918;51.138;17.370;2022-09-16T05:02:33;4.47;;;1.35;;
34695;SDS011;20918;51.138;17.370;2022-09-16T05:05:34;2.50;;;1.45;;
34695;SDS011;20918;51.138;17.370;2022-09-16T05:08:35;7.85;;;1.57;;
34695;SDS011;20918;51.138;17.370;2022-09-16T05:11:37;3.37;;;1.52;;
34695;SDS011;20918;51.138;17.370;2022-09-16T05:14:40;4.85;;;1.15;;
34695;SDS011;20918;51.138;17.370;2022-09-16T05:17:41;2.52;;;1.37;;
34695;SDS011;20918;51.138;17.370;2022-09-16T05:20:42;1.60;;;1.10;;
34695;SDS011;20918;51.138;17.370;2022-09-16T05:23:43;2.42;;;1.32;;
34695;SDS011;20918;51.138;17.370;2022-09-16T05:26:45;1.60;;;1.20;;
34695;SDS011;20918;51.138;17.370;2022-09-16T05:29:46;2.62;;;1.30;;
34695;SDS011;20918;51.138;17.370;2022-09-16T05:32:51;3.62;;;1.37;;
34695;SDS011;20918;51.138;17.370;2022-09-16T05:35:53;3.22;;;1.40;;
34695;SDS011;20918;51.138;17.370;2022-09-16T05:38:54;4.45;;;1.40;;
34695;SDS011;20918;51.138;17.370;2022-09-16T05:41:57;4.83;;;1.87;;
34695;SDS011;20918;51.138;17.370;2022-09-16T05:44:59;2.15;;;1.62;;
34695;SDS011;20918;51.138;17.370;2022-09-16T05:48:00;3.90;;;1.95;;
34695;SDS011;20918;51.138;17.370;2022-09-16T05:51:03;3.42;;;2.17;;
34695;SDS011;20918;51.138;17.370;2022-09-16T05:54:06;2.47;;;1.80;;
34695;SDS011;20918;51.138;17.370;2022-09-16T05:57:07;2.12;;;1.70;;
34695;SDS011;20918;51.138;17.370;2022-09-16T06:00:09;4.22;;;2.05;;
34695;SDS011;20918;51.138;17.370;2022-09-16T06:03:11;3.70;;;2.35;;
34695;SDS011;20918;51.138;17.370;2022-09-16T06:09:28;2.98;;;1.98;;
34695;SDS011;20918;51.138;17.370;2022-09-16T06:12:29;4.42;;;2.00;;
34695;SDS011;20918;51.138;17.370;2022-09-16T06:15:30;4.85;;;2.05;;
34695;SDS011;20918;51.138;17.370;2022-09-16T06:18:31;5.60;;;2.17;;
34695;SDS011;20918;51.138;17.370;2022-09-16T06:21:33;5.30;;;2.00;;
34695;SDS011;20918;51.138;17.370;2022-09-16T06:24:34;6.90;;;2.05;;
34695;SDS011;20918;51.138;17.370;2022-09-16T06:27:35;5.28;;;2.62;;
34695;SDS011;20918;51.138;17.370;2022-09-16T06:30:38;7.28;;;1.90;;
34695;SDS011;20918;51.138;17.370;2022-09-16T06:33:39;3.55;;;2.20;;
34695;SDS011;20918;51.138;17.370;2022-09-16T06:36:40;3.52;;;1.98;;
34695;SDS011;20918;51.138;17.370;2022-09-16T06:39:42;5.95;;;2.40;;
34695;SDS011;20918;51.138;17.370;2022-09-16T06:42:43;8.88;;;2.60;;
34695;SDS011;20918;51.138;17.370;2022-09-16T06:45:44;4.92;;;2.20;;
34695;SDS011;20918;51.138;17.370;2022-09-16T06:48:46;5.72;;;2.25;;
34695;SDS011;20918;51.138;17.370;2022-09-16T06:51:50;3.50;;;2.30;;
34695;SDS011;20918;51.138;17.370;2022-09-16T06:54:51;6.33;;;2.87;;
34695;SDS011;20918;51.138;17.370;2022-09-16T06:57:55;6.40;;;2.77;;
34695;SDS011;20918;51.138;17.370;2022-09-16T07:00:56;9.10;;;3.47;;
34695;SDS011;20918;51.138;17.370;2022-09-16T07:03:57;4.95;;;2.67;;
34695;SDS011;20918;51.138;17.370;2022-09-16T07:07:06;5.03;;;2.40;;
34695;SDS011;20918;51.138;17.370;2022-09-16T07:10:08;4.85;;;2.52;;
34695;SDS011;20918;51.138;17.370;2022-09-16T07:13:09;8.80;;;3.00;;
34695;SDS011;20918;51.138;17.370;2022-09-16T07:16:11;4.50;;;2.92;;
34695;SDS011;20918;51.138;17.370;2022-09-16T07:19:18;3.80;;;2.75;;
34695;SDS011;20918;51.138;17.370;2022-09-16T07:22:19;5.95;;;3.00;;
34695;SDS011;20918;51.138;17.370;2022-09-16T07:25:20;5.65;;;2.77;;
34695;SDS011;20918;51.138;17.370;2022-09-16T07:28:21;3.95;;;2.60;;
34695;SDS011;20918;51.138;17.370;2022-09-16T07:31:23;6.90;;;2.40;;
34695;SDS011;20918;51.138;17.370;2022-09-16T07:34:27;5.92;;;2.65;;
34695;SDS011;20918;51.138;17.370;2022-09-16T07:37:28;3.75;;;1.80;;
34695;SDS011;20918;51.138;17.370;2022-09-16T07:40:29;5.45;;;2.47;;
34695;SDS011;20918;51.138;17.370;2022-09-16T07:43:30;4.28;;;1.90;;
34695;SDS011;20918;51.138;17.370;2022-09-16T07:46:32;3.05;;;1.52;;
34695;SDS011;20918;51.138;17.370;2022-09-16T07:49:35;4.28;;;2.02;;
34695;SDS011;20918;51.138;17.370;2022-09-16T07:52:36;2.90;;;1.80;;
34695;SDS011;20918;51.138;17.370;2022-09-16T07:55:40;4.03;;;2.08;;
34695;SDS011;20918;51.138;17.370;2022-09-16T07:58:42;3.75;;;1.80;;
34695;SDS011;20918;51.138;17.370;2022-09-16T08:01:45;5.95;;;2.60;;
34695;SDS011;20918;51.138;17.370;2022-09-16T08:04:48;5.67;;;2.17;;
34695;SDS011;20918;51.138;17.370;2022-09-16T08:07:49;6.92;;;2.65;;
34695;SDS011;20918;51.138;17.370;2022-09-16T08:10:53;5.80;;;1.85;;
34695;SDS011;20918;51.138;17.370;2022-09-16T08:13:57;4.37;;;2.33;;
34695;SDS011;20918;51.138;17.370;2022-09-16T08:16:59;3.27;;;2.35;;
34695;SDS011;20918;51.138;17.370;2022-09-16T08:20:01;3.33;;;1.80;;
34695;SDS011;20918;51.138;17.370;2022-09-16T08:23:05;4.72;;;2.45;;
34695;SDS011;20918;51.138;17.370;2022-09-16T08:26:07;4.83;;;2.12;;
34695;SDS011;20918;51.138;17.370;2022-09-16T08:29:10;4.47;;;2.30;;
34695;SDS011;20918;51.138;17.370;2022-09-16T08:32:11;3.58;;;1.87;;
34695;SDS011;20918;51.138;17.370;2022-09-16T08:35:12;3.17;;;2.00;;
34695;SDS011;20918;51.138;17.370;2022-09-16T08:38:13;6.33;;;2.20;;
34695;SDS011;20918;51.138;17.370;2022-09-16T08:45:05;2.80;;;1.90;;
34695;SDS011;20918;51.138;17.370;2022-09-16T08:48:32;3.20;;;1.80;;
34695;SDS011;20918;51.138;17.370;2022-09-16T08:51:56;2.77;;;1.57;;
34695;SDS011;20918;51.138;17.370;2022-09-16T08:55:01;5.55;;;2.08;;
34695;SDS011;20918;51.138;17.370;2022-09-16T08:58:36;4.28;;;1.40;;
34695;SDS011;20918;51.138;17.370;2022-09-16T09:01:44;4.80;;;2.33;;
34695;SDS011;20918;51.138;17.370;2022-09-16T09:04:57;4.05;;;1.70;;
34695;SDS011;20918;51.138;17.370;2022-09-16T09:18:22;3.08;;;2.25;;
34695;SDS011;20918;51.138;17.370;2022-09-16T09:28:12;4.35;;;1.75;;
34695;SDS011;20918;51.138;17.370;2022-09-16T09:41:33;4.53;;;1.70;;
34695;SDS011;20918;51.138;17.370;2022-09-16T09:48:00;3.02;;;1.30;;
34695;SDS011;20918;51.138;17.370;2022-09-16T09:54:37;3.05;;;1.27;;
34695;SDS011;20918;51.138;17.370;2022-09-16T09:57:44;3.22;;;1.10;;
34695;SDS011;20918;51.138;17.370;2022-09-16T10:01:02;3.92;;;1.17;;
34695;SDS011;20918;51.138;17.370;2022-09-16T10:04:08;2.25;;;1.00;;
34695;SDS011;20918;51.138;17.370;2022-09-16T10:07:16;3.27;;;1.15;;
34695;SDS011;20918;51.138;17.370;2022-09-16T10:10:21;1.75;;;0.98;;
34695;SDS011;20918;51.138;17.370;2022-09-16T10:13:26;2.15;;;0.90;;
34695;SDS011;20918;51.138;17.370;2022-09-16T10:16:33;2.37;;;1.15;;
34695;SDS011;20918;51.138;17.370;2022-09-16T10:19:48;3.85;;;1.00;;
34695;SDS011;20918;51.138;17.370;2022-09-16T10:23:04;4.03;;;1.22;;
34695;SDS011;20918;51.138;17.370;2022-09-16T10:26:16;5.50;;;1.17;;
34695;SDS011;20918;51.138;17.370;2022-09-16T10:29:23;3.00;;;1.27;;
34695;SDS011;20918;51.138;17.370;2022-09-16T10:32:24;2.42;;;1.25;;
34695;SDS011;20918;51.138;17.370;2022-09-16T10:35:30;3.95;;;1.20;;
34695;SDS011;20918;51.138;17.370;2022-09-16T10:38:40;2.37;;;1.00;;
34695;SDS011;20918;51.138;17.370;2022-09-16T10:41:52;3.77;;;0.85;;
34695;SDS011;20918;51.138;17.370;2022-09-16T10:44:54;3.52;;;1.10;;
34695;SDS011;20918;51.138;17.370;2022-09-16T10:48:01;4.80;;;0.93;;
34695;SDS011;20918;51.138;17.370;2022-09-16T10:51:25;2.35;;;1.07;;
34695;SDS011;20918;51.138;17.370;2022-09-16T10:54:28;2.52;;;1.00;;
34695;SDS011;20918;51.138;17.370;2022-09-16T10:57:31;3.70;;;1.00;;
34695;SDS011;20918;51.138;17.370;2022-09-16T11:00:43;2.35;;;0.90;;
34695;SDS011;20918;51.138;17.370;2022-09-16T11:07:26;5.40;;;1.32;;
34695;SDS011;20918;51.138;17.370;2022-09-16T11:10:41;3.98;;;1.30;;
34695;SDS011;20918;51.138;17.370;2022-09-16T11:17:43;3.62;;;1.20;;
34695;SDS011;20918;51.138;17.370;2022-09-16T11:27:56;3.90;;;1.20;;
34695;SDS011;20918;51.138;17.370;2022-09-16T11:45:45;1.80;;;0.95;;
34695;SDS011;20918;51.138;17.370;2022-09-16T11:52:24;2.55;;;0.93;;
34695;SDS011;20918;51.138;17.370;2022-09-16T11:59:26;1.92;;;1.00;;
34695;SDS011;20918;51.138;17.370;2022-09-16T12:02:43;4.22;;;1.40;;
34695;SDS011;20918;51.138;17.370;2022-09-16T12:06:09;1.80;;;0.90;;
34695;SDS011;20918;51.138;17.370;2022-09-16T12:09:18;3.53;;;1.17;;
34695;SDS011;20918;51.138;17.370;2022-09-16T12:12:25;3.02;;;0.95;;
34695;SDS011;20918;51.138;17.370;2022-09-16T12:15:39;2.83;;;1.00;;
34695;SDS011;20918;51.138;17.370;2022-09-16T12:18:56;1.75;;;1.10;;
34695;SDS011;20918;51.138;17.370;2022-09-16T12:22:03;3.22;;;1.05;;
34695;SDS011;20918;51.138;17.370;2022-09-16T12:25:17;2.92;;;0.90;;
34695;SDS011;20918;51.138;17.370;2022-09-16T12:28:25;1.72;;;0.65;;
34695;SDS011;20918;51.138;17.370;2022-09-16T12:31:43;2.95;;;1.07;;
34695;SDS011;20918;51.138;17.370;2022-09-16T12:35:19;6.00;;;0.90;;
34695;SDS011;20918;51.138;17.370;2022-09-16T12:38:32;4.47;;;1.30;;
34695;SDS011;20918;51.138;17.370;2022-09-16T12:41:41;3.72;;;1.12;;
34695;SDS011;20918;51.138;17.370;2022-09-16T12:52:22;1.47;;;1.00;;
34695;SDS011;20918;51.138;17.370;2022-09-16T13:02:57;1.82;;;0.90;;
34695;SDS011;20918;51.138;17.370;2022-09-16T13:06:04;2.95;;;1.10;;
34695;SDS011;20918;51.138;17.370;2022-09-16T13:09:14;3.37;;;1.00;;
34695;SDS011;20918;51.138;17.370;2022-09-16T13:12:26;1.77;;;0.90;;
34695;SDS011;20918;51.138;17.370;2022-09-16T13:15:30;3.30;;;0.88;;
34695;SDS011;20918;51.138;17.370;2022-09-16T13:18:45;1.45;;;0.75;;
34695;SDS011;20918;51.138;17.370;2022-09-16T13:21:53;1.32;;;0.88;;
34695;SDS011;20918;51.138;17.370;2022-09-16T13:31:45;2.58;;;1.00;;
34695;SDS011;20918;51.138;17.370;2022-09-16T13:34:47;2.30;;;0.93;;
34695;SDS011;20918;51.138;17.370;2022-09-16T13:37:57;4.15;;;0.98;;
34695;SDS011;20918;51.138;17.370;2022-09-16T13:41:00;1.95;;;0.85;;
34695;SDS011;20918;51.138;17.370;2022-09-16T13:44:03;0.82;;;0.72;;
34695;SDS011;20918;51.138;17.370;2022-09-16T13:47:35;2.40;;;0.85;;
34695;SDS011;20918;51.138;17.370;2022-09-16T13:50:40;4.60;;;0.70;;
34695;SDS011;20918;51.138;17.370;2022-09-16T13:53:45;2.22;;;0.90;;
34695;SDS011;20918;51.138;17.370;2022-09-16T14:00:20;1.50;;;0.90;;
34695;SDS011;20918;51.138;17.370;2022-09-16T14:10:24;3.02;;;0.90;;
34695;SDS011;20918;51.138;17.370;2022-09-16T14:13:29;3.45;;;0.80;;
34695;SDS011;20918;51.138;17.370;2022-09-16T14:16:46;1.98;;;0.98;;
34695;SDS011;20918;51.138;17.370;2022-09-16T14:19:49;1.87;;;0.70;;
34695;SDS011;20918;51.138;17.370;2022-09-16T14:23:09;1.12;;;0.65;;
34695;SDS011;20918;51.138;17.370;2022-09-16T14:26:21;4.62;;;1.00;;
34695;SDS011;20918;51.138;17.370;2022-09-16T14:29:23;1.47;;;0.70;;
34695;SDS011;20918;51.138;17.370;2022-09-16T14:32:29;2.83;;;0.62;;
34695;SDS011;20918;51.138;17.370;2022-09-16T14:35:43;0.62;;;0.60;;
34695;SDS011;20918;51.138;17.370;2022-09-16T14:38:53;1.00;;;0.60;;
34695;SDS011;20918;51.138;17.370;2022-09-16T14:41:59;0.72;;;0.55;;
34695;SDS011;20918;51.138;17.370;2022-09-16T14:45:04;0.50;;;0.50;;
34695;SDS011;20918;51.138;17.370;2022-09-16T14:48:08;0.60;;;0.40;;
34695;SDS011;20918;51.138;17.370;2022-09-16T14:51:17;0.95;;;0.50;;
34695;SDS011;20918;51.138;17.370;2022-09-16T14:54:22;0.50;;;0.50;;
34695;SDS011;20918;51.138;17.370;2022-09-16T14:57:26;0.85;;;0.50;;
34695;SDS011;20918;51.138;17.370;2022-09-16T15:00:34;0.57;;;0.57;;
34695;SDS011;20918;51.138;17.370;2022-09-16T15:03:46;1.75;;;0.70;;
34695;SDS011;20918;51.138;17.370;2022-09-16T15:07:07;0.82;;;0.78;;
34695;SDS011;20918;51.138;17.370;2022-09-16T15:10:23;0.60;;;0.60;;
34695;SDS011;20918;51.138;17.370;2022-09-16T15:13:29;1.20;;;0.90;;
34695;SDS011;20918;51.138;17.370;2022-09-16T15:16:40;1.85;;;0.57;;
34695;SDS011;20918;51.138;17.370;2022-09-16T15:19:47;0.95;;;0.70;;
34695;SDS011;20918;51.138;17.370;2022-09-16T15:22:58;3.30;;;0.85;;
34695;SDS011;20918;51.138;17.370;2022-09-16T15:26:25;2.05;;;0.80;;
34695;SDS011;20918;51.138;17.370;2022-09-16T15:32:31;2.45;;;0.90;;
34695;SDS011;20918;51.138;17.370;2022-09-16T15:35:38;3.37;;;0.90;;
34695;SDS011;20918;51.138;17.370;2022-09-16T15:38:44;1.12;;;0.80;;
34695;SDS011;20918;51.138;17.370;2022-09-16T15:42:10;2.20;;;0.70;;
34695;SDS011;20918;51.138;17.370;2022-09-16T15:45:16;5.00;;;2.35;;
34695;SDS011;20918;51.138;17.370;2022-09-16T15:48:19;6.90;;;4.70;;
34695;SDS011;20918;51.138;17.370;2022-09-16T15:51:29;3.65;;;2.00;;
34695;SDS011;20918;51.138;17.370;2022-09-16T15:54:47;1.30;;;0.80;;
34695;SDS011;20918;51.138;17.370;2022-09-16T15:57:51;1.82;;;0.85;;
34695;SDS011;20918;51.138;17.370;2022-09-16T16:04:36;1.07;;;0.95;;
34695;SDS011;20918;51.138;17.370;2022-09-16T16:07:38;1.92;;;0.60;;
34695;SDS011;20918;51.138;17.370;2022-09-16T16:10:51;0.60;;;0.60;;
34695;SDS011;20918;51.138;17.370;2022-09-16T16:13:53;1.25;;;0.70;;
34695;SDS011;20918;51.138;17.370;2022-09-16T16:16:54;1.75;;;0.90;;
34695;SDS011;20918;51.138;17.370;2022-09-16T16:19:55;1.80;;;1.00;;
34695;SDS011;20918;51.138;17.370;2022-09-16T16:22:57;4.47;;;0.82;;
34695;SDS011;20918;51.138;17.370;2022-09-16T16:25:58;1.07;;;0.80;;
34695;SDS011;20918;51.138;17.370;2022-09-16T16:28:59;2.02;;;0.88;;
34695;SDS011;20918;51.138;17.370;2022-09-16T16:32:01;3.10;;;0.60;;
34695;SDS011;20918;51.138;17.370;2022-09-16T16:35:06;1.15;;;0.62;;
34695;SDS011;20918;51.138;17.370;2022-09-16T16:38:08;2.05;;;0.70;;
34695;SDS011;20918;51.138;17.370;2022-09-16T16:41:09;1.35;;;0.72;;
34695;SDS011;20918;51.138;17.370;2022-09-16T16:44:11;3.83;;;1.32;;
34695;SDS011;20918;51.138;17.370;2022-09-16T16:47:13;6.33;;;1.05;;
34695;SDS011;20918;51.138;17.370;2022-09-16T16:50:15;2.55;;;0.80;;
34695;SDS011;20918;51.138;17.370;2022-09-16T16:53:16;1.37;;;1.00;;
34695;SDS011;20918;51.138;17.370;2022-09-16T16:56:18;1.95;;;0.90;;
34695;SDS011;20918;51.138;17.370;2022-09-16T16:59:19;1.50;;;0.93;;
34695;SDS011;20918;51.138;17.370;2022-09-16T17:02:22;1.35;;;0.80;;
34695;SDS011;20918;51.138;17.370;2022-09-16T17:05:23;0.98;;;0.90;;
34695;SDS011;20918;51.138;17.370;2022-09-16T17:08:24;4.65;;;1.45;;
34695;SDS011;20918;51.138;17.370;2022-09-16T17:11:25;5.12;;;1.90;;
34695;SDS011;20918;51.138;17.370;2022-09-16T17:14:27;5.33;;;1.85;;
34695;SDS011;20918;51.138;17.370;2022-09-16T17:17:30;5.40;;;2.25;;
34695;SDS011;20918;51.138;17.370;2022-09-16T17:20:31;6.08;;;2.33;;
34695;SDS011;20918;51.138;17.370;2022-09-16T17:23:32;6.97;;;2.00;;
34695;SDS011;20918;51.138;17.370;2022-09-16T17:26:33;4.15;;;2.17;;
34695;SDS011;20918;51.138;17.370;2022-09-16T17:29:35;3.00;;;1.85;;
34695;SDS011;20918;51.138;17.370;2022-09-16T17:32:36;5.80;;;1.87;;
34695;SDS011;20918;51.138;17.370;2022-09-16T17:35:37;4.55;;;2.62;;
34695;SDS011;20918;51.138;17.370;2022-09-16T17:38:39;4.85;;;2.30;;
34695;SDS011;20918;51.138;17.370;2022-09-16T17:41:41;5.67;;;3.60;;
34695;SDS011;20918;51.138;17.370;2022-09-16T17:44:43;4.92;;;3.50;;
34695;SDS011;20918;51.138;17.370;2022-09-16T17:47:44;6.58;;;4.72;;
34695;SDS011;20918;51.138;17.370;2022-09-16T17:50:48;7.37;;;5.40;;
34695;SDS011;20918;51.138;17.370;2022-09-16T17:53:52;8.05;;;5.75;;
34695;SDS011;20918;51.138;17.370;2022-09-16T17:56:53;7.15;;;4.42;;
34695;SDS011;20918;51.138;17.370;2022-09-16T17:59:54;6.53;;;4.75;;
34695;SDS011;20918;51.138;17.370;2022-09-16T18:02:55;10.63;;;6.67;;
34695;SDS011;20918;51.138;17.370;2022-09-16T18:06:03;13.78;;;8.23;;
34695;SDS011;20918;51.138;17.370;2022-09-16T18:09:09;14.78;;;7.17;;
34695;SDS011;20918;51.138;17.370;2022-09-16T18:12:11;11.22;;;6.40;;
34695;SDS011;20918;51.138;17.370;2022-09-16T18:15:13;7.37;;;5.80;;
34695;SDS011;20918;51.138;17.370;2022-09-16T18:18:14;9.18;;;5.85;;
34695;SDS011;20918;51.138;17.370;2022-09-16T18:21:17;15.95;;;7.83;;
34695;SDS011;20918;51.138;17.370;2022-09-16T18:24:20;15.80;;;8.75;;
34695;SDS011;20918;51.138;17.370;2022-09-16T18:27:21;13.20;;;7.80;;
34695;SDS011;20918;51.138;17.370;2022-09-16T18:30:22;11.45;;;7.35;;
34695;SDS011;20918;51.138;17.370;2022-09-16T18:33:24;9.88;;;6.42;;
34695;SDS011;20918;51.138;17.370;2022-09-16T18:36:26;8.75;;;5.45;;
34695;SDS011;20918;51.138;17.370;2022-09-16T18:39:29;9.05;;;4.85;;
34695;SDS011;20918;51.138;17.370;2022-09-16T18:42:30;6.08;;;4.00;;
34695;SDS011;20918;51.138;17.370;2022-09-16T18:45:31;8.23;;;4.92;;
34695;SDS011;20918;51.138;17.370;2022-09-16T18:48:33;8.13;;;4.87;;
34695;SDS011;20918;51.138;17.370;2022-09-16T18:51:35;8.38;;;4.53;;
34695;SDS011;20918;51.138;17.370;2022-09-16T18:54:39;8.00;;;4.85;;
34695;SDS011;20918;51.138;17.370;2022-09-16T18:57:40;9.83;;;4.00;;
34695;SDS011;20918;51.138;17.370;2022-09-16T19:00:42;13.88;;;4.22;;
34695;SDS011;20918;51.138;17.370;2022-09-16T19:03:45;9.95;;;3.47;;
34695;SDS011;20918;51.138;17.370;2022-09-16T19:06:47;4.03;;;3.30;;
34695;SDS011;20918;51.138;17.370;2022-09-16T19:09:52;9.55;;;3.10;;
34695;SDS011;20918;51.138;17.370;2022-09-16T19:12:54;5.28;;;2.75;;
34695;SDS011;20918;51.138;17.370;2022-09-16T19:15:55;4.65;;;2.95;;
34695;SDS011;20918;51.138;17.370;2022-09-16T19:18:57;4.95;;;2.40;;
34695;SDS011;20918;51.138;17.370;2022-09-16T19:22:00;2.87;;;2.25;;
34695;SDS011;20918;51.138;17.370;2022-09-16T19:25:04;3.67;;;2.33;;
34695;SDS011;20918;51.138;17.370;2022-09-16T19:28:06;6.97;;;3.12;;
34695;SDS011;20918;51.138;17.370;2022-09-16T19:31:09;6.55;;;3.47;;
34695;SDS011;20918;51.138;17.370;2022-09-16T19:34:13;4.85;;;3.15;;
34695;SDS011;20918;51.138;17.370;2022-09-16T19:37:15;8.73;;;3.40;;
34695;SDS011;20918;51.138;17.370;2022-09-16T19:40:16;6.85;;;3.37;;
34695;SDS011;20918;51.138;17.370;2022-09-16T19:43:18;4.90;;;2.75;;
34695;SDS011;20918;51.138;17.370;2022-09-16T19:46:19;6.70;;;3.35;;
34695;SDS011;20918;51.138;17.370;2022-09-16T19:49:20;5.78;;;3.40;;
34695;SDS011;20918;51.138;17.370;2022-09-16T19:52:22;6.22;;;3.00;;
34695;SDS011;20918;51.138;17.370;2022-09-16T19:55:23;5.10;;;3.25;;
34695;SDS011;20918;51.138;17.370;2022-09-16T19:58:25;4.15;;;3.10;;
34695;SDS011;20918;51.138;17.370;2022-09-16T20:01:30;4.65;;;2.85;;
34695;SDS011;20918;51.138;17.370;2022-09-16T20:04:33;6.75;;;3.00;;
34695;SDS011;20918;51.138;17.370;2022-09-16T20:07:34;9.00;;;3.22;;
34695;SDS011;20918;51.138;17.370;2022-09-16T20:10:35;5.47;;;2.83;;
34695;SDS011;20918;51.138;17.370;2022-09-16T20:13:37;4.37;;;3.20;;
34695;SDS011;20918;51.138;17.370;2022-09-16T20:16:38;5.33;;;3.42;;
34695;SDS011;20918;51.138;17.370;2022-09-16T20:19:40;5.25;;;3.45;;
34695;SDS011;20918;51.138;17.370;2022-09-16T20:22:43;5.00;;;3.10;;
34695;SDS011;20918;51.138;17.370;2022-09-16T20:25:52;9.15;;;2.90;;
34695;SDS011;20918;51.138;17.370;2022-09-16T20:28:52;4.62;;;3.15;;
34695;SDS011;20918;51.138;17.370;2022-09-16T20:31:55;5.47;;;3.40;;
34695;SDS011;20918;51.138;17.370;2022-09-16T20:34:56;5.70;;;3.33;;
34695;SDS011;20918;51.138;17.370;2022-09-16T20:37:57;8.93;;;3.87;;
34695;SDS011;20918;51.138;17.370;2022-09-16T20:41:02;6.87;;;3.50;;
34695;SDS011;20918;51.138;17.370;2022-09-16T20:44:13;4.80;;;3.40;;
34695;SDS011;20918;51.138;17.370;2022-09-16T20:47:15;6.50;;;3.70;;
34695;SDS011;20918;51.138;17.370;2022-09-16T20:50:16;11.53;;;4.35;;
34695;SDS011;20918;51.138;17.370;2022-09-16T20:53:17;8.80;;;4.05;;
34695;SDS011;20918;51.138;17.370;2022-09-16T20:56:18;4.45;;;3.00;;
34695;SDS011;20918;51.138;17.370;2022-09-16T20:59:19;5.65;;;2.87;;
34695;SDS011;20918;51.138;17.370;2022-09-16T21:02:20;6.33;;;3.15;;
34695;SDS011;20918;51.138;17.370;2022-09-16T21:05:21;5.37;;;2.83;;
34695;SDS011;20918;51.138;17.370;2022-09-16T21:08:22;5.10;;;3.15;;
34695;SDS011;20918;51.138;17.370;2022-09-16T21:11:25;5.72;;;2.80;;
34695;SDS011;20918;51.138;17.370;2022-09-16T21:14:29;6.28;;;3.00;;
34695;SDS011;20918;51.138;17.370;2022-09-16T21:17:30;3.65;;;2.75;;